createdAt,value
2023-04-20T00:01:47.813Z,9.76
2023-04-20T00:04:16.823Z,9.70
2023-04-20T00:06:45.437Z,9.65
2023-04-20T00:09:16.002Z,9.66
2023-04-20T00:11:44.304Z,9.66
2023-04-20T00:14:12.222Z,9.65
2023-04-20T00:16:41.614Z,9.65
2023-04-20T00:19:09.618Z,9.63
2023-04-20T00:21:37.533Z,9.57
2023-04-20T00:24:05.601Z,9.50
2023-04-20T00:26:33.572Z,9.47
2023-04-20T00:29:01.727Z,9.53
2023-04-20T00:31:29.704Z,9.55
2023-04-20T00:33:59.173Z,9.38
2023-04-20T00:36:27.100Z,9.27
2023-04-20T00:38:55.069Z,9.41
2023-04-20T00:41:23.550Z,9.51
2023-04-20T00:43:52.493Z,9.37
2023-04-20T00:46:20.540Z,9.26
2023-04-20T00:48:49.161Z,9.30
2023-04-20T00:51:18.485Z,9.40
2023-04-20T00:53:46.448Z,9.30
2023-04-20T00:56:15.103Z,9.26
2023-04-20T00:58:43.711Z,9.10
2023-04-20T01:01:11.904Z,9.14
2023-04-20T01:03:40.543Z,9.11
2023-04-20T01:06:08.889Z,9.17
2023-04-20T01:08:43.756Z,9.22
2023-04-20T01:11:11.640Z,9.13
2023-04-20T01:13:39.555Z,9.02
2023-04-20T01:16:08.016Z,9.05
2023-04-20T01:18:44.001Z,9.05
2023-04-20T01:21:12.352Z,8.93
2023-04-20T01:23:41.757Z,9.02
2023-04-20T01:26:10.241Z,8.79
2023-04-20T01:28:38.285Z,8.76
2023-04-20T01:31:07.695Z,8.78
2023-04-20T01:33:36.363Z,8.79
2023-04-20T01:36:05.082Z,8.73
2023-04-20T01:38:34.610Z,8.79
2023-04-20T01:41:04.606Z,8.84
2023-04-20T01:43:35.856Z,8.88
2023-04-20T01:46:04.074Z,8.87
2023-04-20T01:48:32.348Z,8.88
2023-04-20T01:51:00.380Z,8.73
2023-04-20T01:53:28.403Z,8.75
2023-04-20T01:55:56.316Z,8.70
2023-04-20T01:58:25.990Z,8.63
2023-04-20T02:00:55.250Z,8.60
2023-04-20T02:03:23.371Z,8.62
2023-04-20T02:05:51.403Z,8.56
2023-04-20T02:08:19.363Z,8.48
2023-04-20T02:10:47.296Z,8.46
2023-04-20T02:13:15.223Z,8.47
2023-04-20T02:15:44.532Z,8.39
2023-04-20T02:18:12.529Z,8.42
2023-04-20T02:20:41.010Z,8.36
2023-04-20T02:23:09.282Z,8.49
2023-04-20T02:25:37.321Z,8.24
2023-04-20T02:28:05.637Z,8.31
2023-04-20T02:30:33.552Z,8.41
2023-04-20T02:33:02.837Z,8.45
2023-04-20T02:35:30.741Z,8.38
2023-04-20T02:37:58.670Z,8.43
2023-04-20T02:40:26.548Z,8.42
2023-04-20T02:42:54.433Z,8.53
2023-04-20T02:45:22.331Z,8.49
2023-04-20T02:47:50.246Z,8.47
2023-04-20T02:50:19.601Z,8.53
2023-04-20T02:52:47.481Z,8.52
2023-04-20T02:55:15.509Z,8.61
2023-04-20T02:57:43.512Z,8.47
2023-04-20T03:00:13.678Z,8.44
2023-04-20T03:02:41.738Z,8.51
2023-04-20T03:05:10.441Z,8.42
2023-04-20T03:07:39.732Z,8.51
2023-04-20T03:10:09.137Z,8.48
2023-04-20T03:12:37.230Z,8.47
2023-04-20T03:15:06.274Z,8.42
2023-04-20T03:17:34.229Z,8.50
2023-04-20T03:20:02.184Z,8.33
2023-04-20T03:22:30.081Z,8.38
2023-04-20T03:24:59.619Z,8.35
2023-04-20T03:27:27.497Z,8.42
2023-04-20T03:29:55.387Z,8.37
2023-04-20T03:32:23.329Z,8.42
2023-04-20T03:34:52.140Z,8.31
2023-04-20T03:37:20.031Z,8.26
2023-04-20T03:39:47.950Z,8.24
2023-04-20T03:42:17.232Z,8.28
2023-04-20T03:44:45.132Z,8.20
2023-04-20T03:47:13.065Z,8.18
2023-04-20T03:49:41.001Z,8.24
2023-04-20T03:52:09.195Z,8.13
2023-04-20T03:54:37.188Z,7.99
2023-04-20T03:57:05.242Z,8.06
2023-04-20T03:59:34.528Z,8.24
2023-04-20T04:02:03.364Z,8.18
2023-04-20T04:04:31.444Z,8.19
2023-04-20T04:06:59.709Z,8.17
2023-04-20T04:09:27.748Z,8.14
2023-04-20T04:11:55.790Z,7.97
2023-04-20T04:14:23.697Z,8.05
2023-04-20T04:16:53.082Z,8.06
2023-04-20T04:19:20.993Z,8.06
2023-04-20T04:21:48.857Z,8.13
2023-04-20T04:24:17.609Z,8.02
2023-04-20T04:26:45.715Z,8.04
2023-04-20T04:29:13.643Z,8.08
2023-04-20T04:31:41.615Z,8.03
2023-04-20T04:34:10.963Z,8.00
2023-04-20T04:36:38.938Z,8.11
2023-04-20T04:39:06.831Z,8.05
2023-04-20T04:41:34.747Z,8.01
2023-04-20T04:44:03.499Z,8.07
2023-04-20T04:46:32.330Z,7.99
2023-04-20T04:49:01.243Z,8.05
2023-04-20T04:51:31.810Z,7.96
2023-04-20T04:53:59.715Z,8.00
2023-04-20T04:56:28.548Z,8.12
2023-04-20T04:58:56.477Z,8.10
2023-04-20T05:01:24.413Z,8.03
2023-04-20T05:03:52.507Z,8.00
2023-04-20T05:06:20.616Z,7.98
2023-04-20T05:08:49.913Z,7.99
2023-04-20T05:11:17.805Z,7.96
2023-04-20T05:13:45.737Z,7.96
2023-04-20T05:16:13.693Z,7.88
2023-04-20T05:18:41.686Z,7.96
2023-04-20T05:21:09.609Z,7.92
2023-04-20T05:23:37.635Z,7.97
2023-04-20T05:26:07.541Z,8.01
2023-04-20T05:28:35.748Z,7.93
2023-04-20T05:31:03.642Z,7.96
2023-04-20T05:33:31.567Z,7.86
2023-04-20T05:35:59.679Z,7.88
2023-04-20T05:38:27.708Z,7.85
2023-04-20T05:40:56.692Z,7.95
2023-04-20T05:43:25.940Z,7.96
2023-04-20T05:45:53.969Z,8.01
2023-04-20T05:48:21.920Z,8.01
2023-04-20T05:50:49.813Z,7.97
2023-04-20T05:53:17.740Z,7.84
2023-04-20T05:55:45.697Z,7.84
2023-04-20T05:58:13.609Z,7.86
2023-04-20T06:00:42.900Z,7.73
2023-04-20T06:03:10.947Z,7.80
2023-04-20T06:05:39.200Z,7.79
2023-04-20T06:08:07.140Z,7.86
2023-04-20T06:10:35.217Z,7.68
2023-04-20T06:13:03.167Z,7.77
2023-04-20T06:15:31.114Z,7.73
2023-04-20T06:18:01.784Z,7.78
2023-04-20T06:20:29.905Z,7.89
2023-04-20T06:22:57.846Z,7.72
2023-04-20T06:25:25.954Z,7.66
2023-04-20T06:27:53.875Z,7.76
2023-04-20T06:30:21.931Z,7.89
2023-04-20T06:32:49.925Z,7.99
2023-04-20T06:35:19.361Z,7.86
2023-04-20T06:37:47.261Z,7.88
2023-04-20T06:40:16.276Z,8.00
2023-04-20T06:42:44.305Z,8.03
2023-04-20T06:45:12.888Z,7.99
2023-04-20T06:47:41.021Z,7.99
2023-04-20T06:50:10.327Z,8.14
2023-04-20T06:52:40.490Z,8.08
2023-04-20T06:55:09.187Z,8.14
2023-04-20T06:57:38.619Z,8.08
2023-04-20T07:00:09.050Z,8.13
2023-04-20T07:02:44.404Z,8.07
2023-04-20T07:05:12.622Z,8.14
2023-04-20T07:07:42.329Z,8.08
2023-04-20T07:10:11.883Z,8.09
2023-04-20T07:12:42.825Z,8.13
2023-04-20T07:15:12.124Z,8.07
2023-04-20T07:17:40.488Z,8.03
2023-04-20T07:20:10.094Z,8.07
2023-04-20T07:22:38.572Z,8.21
2023-04-20T07:25:09.780Z,8.16
2023-04-20T07:27:38.446Z,8.15
2023-04-20T07:30:08.829Z,8.20
2023-04-20T07:32:36.980Z,8.15
2023-04-20T07:35:05.139Z,8.16
2023-04-20T07:37:33.044Z,8.12
2023-04-20T07:40:01.028Z,8.17
2023-04-20T07:42:30.446Z,8.15
2023-04-20T07:44:58.767Z,8.14
2023-04-20T07:47:26.773Z,8.08
2023-04-20T07:49:54.881Z,8.11
2023-04-20T07:52:22.876Z,8.17
2023-04-20T07:54:50.784Z,8.24
2023-04-20T07:57:19.144Z,8.34
2023-04-20T07:59:48.775Z,8.26
2023-04-20T08:02:17.358Z,8.11
2023-04-20T08:04:46.445Z,8.18
2023-04-20T08:07:15.098Z,8.20
2023-04-20T08:09:43.097Z,8.33
2023-04-20T08:12:11.098Z,8.30
2023-04-20T08:14:39.567Z,8.35
2023-04-20T08:17:10.051Z,8.31
2023-04-20T08:19:37.962Z,8.24
2023-04-20T08:22:06.945Z,8.14
2023-04-20T08:24:34.897Z,8.29
2023-04-20T08:27:02.792Z,8.17
2023-04-20T08:29:30.933Z,8.22
2023-04-20T08:31:58.905Z,8.37
2023-04-20T08:34:28.246Z,8.23
2023-04-20T08:36:56.408Z,8.25
2023-04-20T08:39:24.548Z,8.33
2023-04-20T08:41:55.854Z,8.25
2023-04-20T08:44:23.970Z,8.22
2023-04-20T08:46:52.517Z,8.28
2023-04-20T08:49:21.572Z,8.30
2023-04-20T08:51:51.600Z,8.30
2023-04-20T08:54:19.782Z,8.21
2023-04-20T08:56:49.013Z,8.23
2023-04-20T08:59:17.286Z,8.37
2023-04-20T09:01:46.432Z,8.41
2023-04-20T09:04:19.324Z,8.41
2023-04-20T09:06:47.809Z,8.37
2023-04-20T09:09:17.197Z,8.25
2023-04-20T09:11:45.790Z,8.43
2023-04-20T09:14:15.022Z,8.43
2023-04-20T09:16:51.149Z,8.50
2023-04-20T09:19:23.722Z,8.48
2023-04-20T09:21:52.365Z,8.66
2023-04-20T09:24:23.233Z,8.72
2023-04-20T09:26:51.226Z,8.69
2023-04-20T09:29:20.738Z,8.71
2023-04-20T09:31:48.978Z,8.68
2023-04-20T09:34:17.172Z,8.71
2023-04-20T09:36:47.117Z,8.70
2023-04-20T09:39:17.583Z,8.64
2023-04-20T09:41:47.634Z,8.67
2023-04-20T09:44:17.181Z,8.79
2023-04-20T09:46:46.708Z,8.83
2023-04-20T09:49:15.862Z,8.79
2023-04-20T09:51:46.020Z,8.85
2023-04-20T09:54:16.033Z,8.98
2023-04-20T09:56:44.530Z,9.11
2023-04-20T09:59:14.315Z,9.17
2023-04-20T10:01:42.464Z,9.19
2023-04-20T10:04:12.365Z,9.24
2023-04-20T10:06:40.536Z,9.24
2023-04-20T10:09:09.781Z,9.26
2023-04-20T10:11:49.608Z,9.24
2023-04-20T10:14:23.096Z,9.24
2023-04-20T10:17:01.140Z,9.21
2023-04-20T10:19:38.726Z,9.24
2023-04-20T10:22:07.323Z,9.26
2023-04-20T10:24:35.896Z,9.38
2023-04-20T10:27:04.150Z,9.47
2023-04-20T10:29:35.924Z,9.50
2023-04-20T10:32:04.374Z,9.44
2023-04-20T10:34:32.773Z,9.47
2023-04-20T10:37:10.998Z,9.59
2023-04-20T10:39:45.495Z,9.62
2023-04-20T10:42:14.643Z,9.63
2023-04-20T10:44:50.574Z,9.56
2023-04-20T10:47:19.112Z,9.59
2023-04-20T10:49:47.146Z,9.64
2023-04-20T10:52:15.082Z,9.67
2023-04-20T10:54:43.032Z,9.80
2023-04-20T10:57:17.430Z,9.63
2023-04-20T10:59:46.932Z,9.77
2023-04-20T11:02:16.320Z,9.79
2023-04-20T11:04:44.339Z,9.82
2023-04-20T11:07:13.703Z,9.78
2023-04-20T11:09:42.872Z,9.75
2023-04-20T11:12:12.727Z,9.76
2023-04-20T11:14:52.329Z,9.81
2023-04-20T11:17:21.971Z,9.80
2023-04-20T11:19:50.520Z,9.92
2023-04-20T11:22:24.895Z,9.86
2023-04-20T11:24:52.840Z,9.99
2023-04-20T11:27:22.254Z,9.96
2023-04-20T11:29:58.703Z,9.95
2023-04-20T11:32:28.854Z,9.98
2023-04-20T11:35:06.512Z,10.03
2023-04-20T11:37:35.506Z,10.03
2023-04-20T11:40:07.746Z,10.04
2023-04-20T11:42:35.966Z,10.06
2023-04-20T11:45:04.246Z,9.94
2023-04-20T11:47:33.698Z,10.03
2023-04-20T11:50:02.043Z,10.07
2023-04-20T11:52:29.966Z,10.05
2023-04-20T11:54:57.903Z,10.14
2023-04-20T11:57:26.177Z,10.01
2023-04-20T11:59:54.059Z,10.03
2023-04-20T12:02:22.848Z,10.09
2023-04-20T12:04:52.324Z,10.11
2023-04-20T12:07:20.322Z,10.08
2023-04-20T12:09:48.255Z,10.10
2023-04-20T12:12:16.168Z,10.03
2023-04-20T12:14:44.073Z,10.10
2023-04-20T12:17:12.101Z,10.16
2023-04-20T12:19:40.032Z,10.19
2023-04-20T12:22:09.336Z,10.24
2023-04-20T12:24:37.239Z,10.29
2023-04-20T12:27:06.117Z,10.27
2023-04-20T12:29:34.117Z,10.23
2023-04-20T12:32:02.208Z,10.30
2023-04-20T12:34:30.784Z,10.24
2023-04-20T12:36:58.773Z,10.29
2023-04-20T12:39:28.309Z,10.30
2023-04-20T12:41:58.111Z,10.27
2023-04-20T12:44:26.111Z,10.38
2023-04-20T12:46:54.036Z,10.40
2023-04-20T12:49:21.986Z,10.43
2023-04-20T12:51:49.969Z,10.45
2023-04-20T12:54:18.209Z,10.47
2023-04-20T12:56:50.630Z,10.43
2023-04-20T12:59:18.552Z,10.39
2023-04-20T13:01:49.547Z,10.35
2023-04-20T13:04:18.004Z,10.36
2023-04-20T13:06:46.281Z,10.36
2023-04-20T13:09:14.248Z,10.32
2023-04-20T13:11:42.154Z,10.33
2023-04-20T13:14:11.463Z,10.25
2023-04-20T13:16:39.489Z,10.30
2023-04-20T13:19:07.990Z,10.32
2023-04-20T13:21:35.962Z,10.29
2023-04-20T13:24:03.940Z,10.33
2023-04-20T13:26:31.947Z,10.40
2023-04-20T13:29:02.193Z,10.38
2023-04-20T13:31:32.214Z,10.41
2023-04-20T13:34:00.324Z,10.47
2023-04-20T13:36:29.443Z,10.51
2023-04-20T13:38:58.476Z,10.54
2023-04-20T13:41:26.505Z,10.62
2023-04-20T13:43:54.528Z,10.53
2023-04-20T13:46:22.676Z,10.59
2023-04-20T13:48:52.041Z,10.68
2023-04-20T13:51:21.020Z,10.69
2023-04-20T13:53:49.175Z,10.81
2023-04-20T13:56:17.413Z,11.00
2023-04-20T13:58:45.795Z,11.10
2023-04-20T14:01:15.453Z,11.10
2023-04-20T14:03:43.677Z,11.13
2023-04-20T14:06:13.175Z,11.10
2023-04-20T14:08:41.090Z,11.13
2023-04-20T14:11:09.016Z,11.12
2023-04-20T14:13:37.476Z,11.19
2023-04-20T14:16:09.722Z,11.14
2023-04-20T14:18:37.848Z,11.11
2023-04-20T14:21:05.850Z,11.19
2023-04-20T14:23:35.217Z,11.19
2023-04-20T14:26:03.928Z,11.22
2023-04-20T14:28:33.047Z,11.23
2023-04-20T14:31:02.621Z,11.21
2023-04-20T14:33:30.596Z,11.31
2023-04-20T14:35:58.508Z,11.34
2023-04-20T14:38:26.433Z,11.29
2023-04-20T14:40:55.724Z,11.36
2023-04-20T14:43:23.966Z,11.36
2023-04-20T14:45:51.978Z,11.36
2023-04-20T14:48:19.902Z,11.49
2023-04-20T14:50:47.801Z,11.52
2023-04-20T14:53:15.722Z,11.53
2023-04-20T14:55:43.693Z,11.60
2023-04-20T14:58:13.049Z,11.57
2023-04-20T15:00:40.997Z,11.56
2023-04-20T15:03:09.197Z,11.53
2023-04-20T15:05:37.463Z,11.50
2023-04-20T15:08:05.936Z,11.44
2023-04-20T15:10:35.293Z,11.44
2023-04-20T15:13:04.449Z,11.47
2023-04-20T15:15:46.922Z,11.45
2023-04-20T15:18:17.023Z,11.46
2023-04-20T15:20:45.350Z,11.44
2023-04-20T15:23:13.427Z,11.48
2023-04-20T15:25:41.407Z,11.42
2023-04-20T15:28:09.374Z,11.47
2023-04-20T15:30:38.723Z,11.40
2023-04-20T15:33:06.788Z,11.43
2023-04-20T15:35:34.882Z,11.40
2023-04-20T15:38:03.713Z,11.47
2023-04-20T15:40:31.672Z,11.46
2023-04-20T15:42:59.700Z,11.47
2023-04-20T15:45:27.695Z,11.51
2023-04-20T15:47:57.238Z,11.52
2023-04-20T15:50:25.244Z,11.53
2023-04-20T15:52:55.668Z,11.48
2023-04-20T15:55:23.851Z,11.51
2023-04-20T15:57:57.035Z,11.56
2023-04-20T16:00:26.358Z,11.62
2023-04-20T16:02:54.728Z,11.60
2023-04-20T16:05:24.496Z,11.61
2023-04-20T16:07:53.619Z,11.67
2023-04-20T16:10:23.571Z,11.68
2023-04-20T16:12:51.642Z,11.69
2023-04-20T16:15:20.002Z,11.73
2023-04-20T16:17:47.935Z,11.69
2023-04-20T16:20:15.881Z,11.74
2023-04-20T16:22:45.236Z,12.05
2023-04-20T16:25:22.493Z,12.12
2023-04-20T16:27:51.394Z,12.13
2023-04-20T16:30:19.374Z,12.15
2023-04-20T16:32:47.326Z,12.15
2023-04-20T16:35:15.352Z,12.05
2023-04-20T16:37:43.318Z,12.05
2023-04-20T16:40:13.111Z,12.01
2023-04-20T16:42:41.058Z,11.97
2023-04-20T16:45:09.596Z,11.93
2023-04-20T16:47:37.547Z,11.94
2023-04-20T16:50:07.708Z,11.89
2023-04-20T16:52:35.772Z,11.87
2023-04-20T16:55:04.031Z,11.85
2023-04-20T16:57:33.358Z,11.83
2023-04-20T17:00:01.299Z,11.83
2023-04-20T17:02:33.081Z,11.80
2023-04-20T17:05:01.228Z,11.75
2023-04-20T17:07:29.609Z,11.77
2023-04-20T17:09:57.520Z,11.74
2023-04-20T17:12:25.455Z,11.70
2023-04-20T17:14:55.785Z,11.63
2023-04-20T17:17:23.776Z,11.61
2023-04-20T17:19:51.807Z,11.60
2023-04-20T17:22:19.744Z,11.55
2023-04-20T17:24:47.659Z,11.52
2023-04-20T17:27:16.092Z,11.51
2023-04-20T17:29:44.947Z,11.51
2023-04-20T17:32:14.715Z,11.50
2023-04-20T17:34:45.064Z,11.48
2023-04-20T17:37:15.460Z,11.67
2023-04-20T17:39:43.357Z,11.96
2023-04-20T17:42:11.342Z,11.75
2023-04-20T17:44:39.385Z,11.50
2023-04-20T17:47:09.492Z,11.36
2023-04-20T17:49:41.266Z,11.27
2023-04-20T17:52:09.403Z,11.18
2023-04-20T17:54:37.340Z,11.14
2023-04-20T17:57:06.964Z,11.09
2023-04-20T17:59:34.869Z,11.08
2023-04-20T18:02:03.580Z,11.02
2023-04-20T18:04:31.874Z,10.93
2023-04-20T18:07:01.254Z,10.95
2023-04-20T18:09:29.215Z,10.93
2023-04-20T18:11:57.207Z,10.89
2023-04-20T18:14:25.220Z,10.84
2023-04-20T18:16:55.237Z,10.80
2023-04-20T18:19:23.483Z,10.77
2023-04-20T18:21:51.422Z,10.72
2023-04-20T18:24:20.946Z,10.68
2023-04-20T18:26:48.993Z,10.66
2023-04-20T18:29:17.157Z,10.60
2023-04-20T18:31:46.562Z,10.61
2023-04-20T18:34:16.531Z,10.55
2023-04-20T18:36:44.643Z,10.49
2023-04-20T18:39:12.598Z,10.41
2023-04-20T18:41:42.183Z,10.38
2023-04-20T18:44:10.149Z,10.37
2023-04-20T18:46:38.129Z,10.33
2023-04-20T18:49:06.300Z,10.37
2023-04-20T18:51:34.565Z,10.27
2023-04-20T18:54:02.895Z,10.18
2023-04-20T18:56:31.365Z,10.14
2023-04-20T18:59:01.563Z,10.14
2023-04-20T19:01:29.638Z,10.11
2023-04-20T19:03:57.814Z,10.08
2023-04-20T19:06:26.076Z,10.04
2023-04-20T19:08:55.330Z,10.06
2023-04-20T19:11:23.583Z,10.08
2023-04-20T19:13:51.512Z,10.03
2023-04-20T19:16:20.948Z,10.01
2023-04-20T19:18:49.380Z,9.99
2023-04-20T19:21:17.343Z,9.93
2023-04-20T19:23:45.408Z,9.85
2023-04-20T19:26:13.410Z,9.86
2023-04-20T19:28:41.315Z,9.85
2023-04-20T19:31:10.965Z,9.82
2023-04-20T19:33:41.056Z,9.82
2023-04-20T19:36:09.093Z,9.79
2023-04-20T19:38:38.669Z,9.77
2023-04-20T19:41:06.978Z,9.74
2023-04-20T19:43:35.333Z,9.62
2023-04-20T19:46:03.295Z,9.64
2023-04-20T19:48:31.281Z,9.61
2023-04-20T19:51:00.972Z,9.60
2023-04-20T19:53:28.925Z,9.53
2023-04-20T19:55:56.941Z,9.46
2023-04-20T19:58:24.831Z,9.37
2023-04-20T20:00:52.816Z,9.34
2023-04-20T20:03:20.892Z,9.34
2023-04-20T20:05:48.861Z,9.34
2023-04-20T20:08:18.184Z,9.32
2023-04-20T20:10:46.143Z,9.27
2023-04-20T20:13:15.411Z,9.27
2023-04-20T20:15:44.644Z,9.27
2023-04-20T20:18:12.751Z,9.25
2023-04-20T20:20:40.727Z,9.18
2023-04-20T20:23:08.759Z,9.22
2023-04-20T20:25:38.108Z,9.23
2023-04-20T20:28:06.266Z,9.18
2023-04-20T20:30:34.444Z,9.11
2023-04-20T20:33:02.401Z,9.12
2023-04-20T20:35:33.169Z,9.14
2023-04-20T20:38:01.447Z,9.13
2023-04-20T20:40:29.387Z,9.11
2023-04-20T20:42:58.692Z,9.12
2023-04-20T20:45:27.842Z,9.09
2023-04-20T20:47:56.440Z,9.09
2023-04-20T20:50:26.266Z,9.01
2023-04-20T20:52:54.172Z,8.96
2023-04-20T20:55:22.149Z,8.96
2023-04-20T20:57:50.073Z,8.97
2023-04-20T21:00:20.299Z,8.91
2023-04-20T21:02:48.423Z,8.91
2023-04-20T21:05:16.487Z,8.88
2023-04-20T21:07:44.476Z,8.87
2023-04-20T21:10:12.715Z,8.82
2023-04-20T21:12:40.601Z,8.81
2023-04-20T21:15:10.291Z,8.76
2023-04-20T21:17:39.589Z,8.73
2023-04-20T21:20:09.443Z,8.76
2023-04-20T21:22:37.552Z,8.70
2023-04-20T21:25:06.439Z,8.72
2023-04-20T21:27:34.343Z,8.72
2023-04-20T21:30:02.287Z,8.69
2023-04-20T21:32:30.252Z,8.69
2023-04-20T21:34:59.497Z,8.64
2023-04-20T21:37:27.512Z,8.63
2023-04-20T21:39:55.415Z,8.60
2023-04-20T21:42:23.388Z,8.63
2023-04-20T21:44:51.282Z,8.61
2023-04-20T21:47:19.235Z,8.55
2023-04-20T21:49:47.202Z,8.60
2023-04-20T21:52:16.493Z,8.59
2023-04-20T21:54:44.388Z,8.48
2023-04-20T21:57:12.396Z,8.48
2023-04-20T21:59:40.284Z,8.52
2023-04-20T22:02:08.352Z,8.46
2023-04-20T22:04:36.571Z,8.48
2023-04-20T22:07:04.764Z,8.48
2023-04-20T22:09:34.205Z,8.50
2023-04-20T22:12:03.282Z,8.48
2023-04-20T22:14:31.237Z,8.53
2023-04-20T22:16:59.631Z,8.49
2023-04-20T22:19:27.772Z,8.47
2023-04-20T22:21:55.739Z,8.46
2023-04-20T22:24:23.704Z,8.48
2023-04-20T22:26:53.024Z,8.50
2023-04-20T22:29:21.531Z,8.49
2023-04-20T22:31:49.627Z,8.46
2023-04-20T22:34:17.566Z,8.50
2023-04-20T22:36:45.492Z,8.44
2023-04-20T22:39:13.461Z,8.37
2023-04-20T22:41:41.523Z,8.43
2023-04-20T22:44:10.792Z,8.42
2023-04-20T22:46:38.816Z,8.39
2023-04-20T22:49:06.722Z,8.36
2023-04-20T22:51:34.702Z,8.30
2023-04-20T22:54:02.707Z,8.33
2023-04-20T22:56:30.733Z,8.32
2023-04-20T22:58:58.700Z,8.28
2023-04-20T23:01:28.058Z,8.27
2023-04-20T23:03:56.047Z,8.25
2023-04-20T23:06:24.710Z,8.22
2023-04-20T23:08:52.617Z,8.21
2023-04-20T23:11:20.873Z,8.23
2023-04-20T23:13:48.788Z,8.19
2023-04-20T23:16:16.787Z,8.20
2023-04-20T23:18:46.126Z,8.13
2023-04-20T23:21:14.122Z,8.14
2023-04-20T23:23:42.048Z,8.06
2023-04-20T23:26:09.915Z,8.11
2023-04-20T23:28:37.848Z,8.12
2023-04-20T23:31:06.099Z,8.12
2023-04-20T23:33:33.987Z,8.12
2023-04-20T23:36:03.299Z,8.05
2023-04-20T23:38:31.295Z,7.96
2023-04-20T23:40:59.209Z,7.94
2023-04-20T23:43:27.113Z,7.92
2023-04-20T23:45:55.165Z,7.88
2023-04-20T23:48:23.086Z,7.86
2023-04-20T23:50:51.223Z,7.85
2023-04-20T23:53:20.524Z,7.77
2023-04-20T23:55:51.773Z,7.72
2023-04-20T23:58:19.756Z,7.67
